createdAt,value
2024-04-12T00:00:06.306Z,53.90
2024-04-12T00:02:33.936Z,53.92
2024-04-12T00:05:01.454Z,53.90
2024-04-12T00:07:28.825Z,54.24
2024-04-12T00:09:56.794Z,53.71
2024-04-12T00:12:24.272Z,53.94
2024-04-12T00:14:51.712Z,53.96
2024-04-12T00:17:19.112Z,54.28
2024-04-12T00:19:46.481Z,54.20
2024-04-12T00:22:13.853Z,54.43
2024-04-12T00:24:41.230Z,54.42
2024-04-12T00:27:08.624Z,54.39
2024-04-12T00:29:36.078Z,54.29
2024-04-12T00:32:03.467Z,54.26
2024-04-12T00:34:30.837Z,54.34
2024-04-12T00:36:58.191Z,54.30
2024-04-12T00:39:25.548Z,54.38
2024-04-12T00:41:52.988Z,54.45
2024-04-12T00:44:20.374Z,54.93
2024-04-12T00:46:47.738Z,55.18
2024-04-12T00:49:15.113Z,55.23
2024-04-12T00:51:42.492Z,54.80
2024-04-12T00:54:09.885Z,54.33
2024-04-12T00:56:37.341Z,53.83
2024-04-12T00:59:04.756Z,54.12
2024-04-12T01:01:32.155Z,54.19
2024-04-12T01:03:59.595Z,53.85
2024-04-12T01:06:27.056Z,53.88
2024-04-12T01:08:54.535Z,54.18
2024-04-12T01:11:21.958Z,54.49
2024-04-12T01:13:49.353Z,55.48
2024-04-12T01:16:16.717Z,56.00
2024-04-12T01:18:44.246Z,55.88
2024-04-12T01:21:11.987Z,56.53
2024-04-12T01:23:39.526Z,56.71
2024-04-12T01:26:06.911Z,57.49
2024-04-12T01:28:34.268Z,57.05
2024-04-12T01:31:01.622Z,57.15
2024-04-12T01:33:29.075Z,57.36
2024-04-12T01:35:56.520Z,57.60
2024-04-12T01:38:23.915Z,57.42
2024-04-12T01:40:51.296Z,57.04
2024-04-12T01:43:18.675Z,56.64
2024-04-12T01:45:46.053Z,56.26
2024-04-12T01:48:13.585Z,56.25
2024-04-12T01:50:41.032Z,56.31
2024-04-12T01:53:08.419Z,56.04
2024-04-12T01:55:35.790Z,55.47
2024-04-12T01:58:03.154Z,55.59
2024-04-12T02:00:30.535Z,55.96
2024-04-12T02:02:58.039Z,56.30
2024-04-12T02:05:25.427Z,56.04
2024-04-12T02:07:52.798Z,56.20
2024-04-12T02:10:20.194Z,56.33
2024-04-12T02:12:47.569Z,56.76
2024-04-12T02:15:14.941Z,56.37
2024-04-12T02:17:42.491Z,56.22
2024-04-12T02:20:09.938Z,56.28
2024-04-12T02:22:37.287Z,56.18
2024-04-12T02:25:04.648Z,56.77
2024-04-12T02:27:32.014Z,56.82
2024-04-12T02:29:59.394Z,57.46
2024-04-12T02:32:26.850Z,57.39
2024-04-12T02:34:54.227Z,58.09
2024-04-12T02:37:21.642Z,57.29
2024-04-12T02:39:49.072Z,56.99
2024-04-12T02:42:16.446Z,56.75
2024-04-12T02:44:43.829Z,56.81
2024-04-12T02:47:11.225Z,57.05
2024-04-12T02:49:38.595Z,56.83
2024-04-12T02:52:06.023Z,56.71
2024-04-12T02:54:33.414Z,57.17
2024-04-12T02:57:00.999Z,56.96
2024-04-12T02:59:28.384Z,56.04
2024-04-12T03:01:55.805Z,55.97
2024-04-12T03:04:23.214Z,56.44
2024-04-12T03:06:50.604Z,56.93
2024-04-12T03:09:18.061Z,56.35
2024-04-12T03:11:45.516Z,56.62
2024-04-12T03:14:12.949Z,56.06
2024-04-12T03:16:40.453Z,56.76
2024-04-12T03:19:07.958Z,56.96
2024-04-12T03:21:35.322Z,57.15
2024-04-12T03:24:02.746Z,56.99
2024-04-12T03:26:30.123Z,57.47
2024-04-12T03:28:57.498Z,57.20
2024-04-12T03:31:24.870Z,57.80
2024-04-12T03:33:52.237Z,57.46
2024-04-12T03:36:19.606Z,57.08
2024-04-12T03:38:47.069Z,57.03
2024-04-12T03:41:14.477Z,56.96
2024-04-12T03:43:41.834Z,56.72
2024-04-12T03:46:09.202Z,56.91
2024-04-12T03:48:36.669Z,56.96
2024-04-12T03:51:04.195Z,57.85
2024-04-12T03:53:31.592Z,57.75
2024-04-12T03:55:58.971Z,57.41
2024-04-12T03:58:26.347Z,56.78
2024-04-12T04:00:53.726Z,56.99
2024-04-12T04:03:21.141Z,57.16
2024-04-12T04:05:48.561Z,57.01
2024-04-12T04:08:15.994Z,56.73
2024-04-12T04:10:43.408Z,56.42
2024-04-12T04:15:38.264Z,56.55
2024-04-12T04:18:05.783Z,56.95
2024-04-12T04:20:33.309Z,57.66
2024-04-12T04:23:00.692Z,57.74
2024-04-12T04:25:28.060Z,57.92
2024-04-12T04:27:55.420Z,58.09
2024-04-12T04:30:22.784Z,58.49
2024-04-12T04:32:50.215Z,58.61
2024-04-12T04:35:17.616Z,58.93
2024-04-12T04:37:45.000Z,58.76
2024-04-12T04:40:12.386Z,58.50
2024-04-12T04:42:39.748Z,58.14
2024-04-12T04:45:07.167Z,58.02
2024-04-12T04:47:34.798Z,58.35
2024-04-12T04:50:02.264Z,58.58
2024-04-12T04:52:29.641Z,58.88
2024-04-12T04:54:57.039Z,58.19
2024-04-12T04:57:24.434Z,57.82
2024-04-12T04:59:51.832Z,58.27
2024-04-12T05:02:19.230Z,58.57
2024-04-12T05:04:46.603Z,58.85
2024-04-12T05:07:13.982Z,58.36
2024-04-12T05:09:41.365Z,58.71
2024-04-12T05:12:08.866Z,58.22
2024-04-12T05:14:36.360Z,58.54
2024-04-12T05:17:03.780Z,58.75
2024-04-12T05:19:31.188Z,58.73
2024-04-12T05:21:58.565Z,58.91
2024-04-12T05:24:25.925Z,59.45
2024-04-12T05:26:53.379Z,59.01
2024-04-12T05:29:20.755Z,59.08
2024-04-12T05:31:48.116Z,59.73
2024-04-12T05:34:15.477Z,60.83
2024-04-12T05:36:42.889Z,59.52
2024-04-12T05:39:10.338Z,58.65
2024-04-12T05:41:37.748Z,58.76
2024-04-12T05:44:05.132Z,58.00
2024-04-12T05:46:32.490Z,58.11
2024-04-12T05:48:59.852Z,58.93
2024-04-12T05:51:27.258Z,58.31
2024-04-12T05:53:54.695Z,58.04
2024-04-12T05:56:22.495Z,58.27
2024-04-12T05:58:50.071Z,57.86
2024-04-12T06:01:17.449Z,58.13
2024-04-12T06:03:44.929Z,58.28
2024-04-12T06:06:12.370Z,59.50
2024-04-12T06:08:39.779Z,59.85
2024-04-12T06:11:07.160Z,59.04
2024-04-12T06:13:34.542Z,59.09
2024-04-12T06:16:01.912Z,59.39
2024-04-12T06:18:29.297Z,59.33
2024-04-12T06:20:56.760Z,59.14
2024-04-12T06:23:26.834Z,58.74
2024-04-12T06:25:55.819Z,58.94
2024-04-12T06:28:23.203Z,59.21
2024-04-12T06:30:50.654Z,59.77
2024-04-12T06:33:18.088Z,60.47
2024-04-12T06:35:45.550Z,59.72
2024-04-12T06:38:12.988Z,59.38
2024-04-12T06:40:40.357Z,59.79
2024-04-12T06:43:10.258Z,59.79
2024-04-12T06:45:38.595Z,59.75
2024-04-12T06:48:06.059Z,59.61
2024-04-12T06:50:33.508Z,59.51
2024-04-12T06:53:00.897Z,59.33
2024-04-12T06:55:28.286Z,59.39
2024-04-12T06:57:55.674Z,59.54
2024-04-12T07:00:23.064Z,59.30
2024-04-12T07:02:50.515Z,59.14
2024-04-12T07:05:17.930Z,59.79
2024-04-12T07:07:45.320Z,59.62
2024-04-12T07:10:12.676Z,60.18
2024-04-12T07:12:40.036Z,60.25
2024-04-12T07:15:07.413Z,59.79
2024-04-12T07:17:34.949Z,59.77
2024-04-12T07:20:02.395Z,59.97
2024-04-12T07:22:29.775Z,59.31
2024-04-12T07:24:57.668Z,58.91
2024-04-12T07:27:25.102Z,59.22
2024-04-12T07:29:52.521Z,59.58
2024-04-12T07:32:19.956Z,59.35
2024-04-12T07:34:47.340Z,58.96
2024-04-12T07:37:14.792Z,58.50
2024-04-12T07:39:42.214Z,59.11
2024-04-12T07:42:09.722Z,58.72
2024-04-12T07:44:37.175Z,58.59
2024-04-12T07:47:04.660Z,59.12
2024-04-12T07:49:32.118Z,59.47
2024-04-12T07:51:59.662Z,58.52
2024-04-12T07:54:27.142Z,58.83
2024-04-12T07:56:54.547Z,58.33
2024-04-12T07:59:21.925Z,59.29
2024-04-12T08:01:49.307Z,59.16
2024-04-12T08:04:16.768Z,58.32
2024-04-12T08:06:44.159Z,58.22
2024-04-12T08:09:11.547Z,57.87
2024-04-12T08:11:38.997Z,58.07
2024-04-12T08:14:06.366Z,57.88
2024-04-12T08:16:33.812Z,57.72
2024-04-12T08:19:01.317Z,58.29
2024-04-12T08:21:28.887Z,57.53
2024-04-12T08:23:56.398Z,57.56
2024-04-12T08:26:23.789Z,57.54
2024-04-12T08:28:51.159Z,57.26
2024-04-12T08:31:18.544Z,57.71
2024-04-12T08:33:45.974Z,57.88
2024-04-12T08:36:13.495Z,56.94
2024-04-12T08:38:40.962Z,56.70
2024-04-12T08:41:08.366Z,56.88
2024-04-12T08:43:35.732Z,56.40
2024-04-12T08:46:03.105Z,56.20
2024-04-12T08:48:30.593Z,55.92
2024-04-12T08:50:58.074Z,56.32
2024-04-12T08:53:25.492Z,56.23
2024-04-12T08:55:52.885Z,55.60
2024-04-12T08:58:20.259Z,55.33
2024-04-12T09:00:47.676Z,55.31
2024-04-12T09:03:15.151Z,55.33
2024-04-12T09:05:42.643Z,54.78
2024-04-12T09:08:10.168Z,54.93
2024-04-12T09:10:38.015Z,54.33
2024-04-12T09:13:05.563Z,54.59
2024-04-12T09:15:32.994Z,53.85
2024-04-12T09:18:00.547Z,53.89
2024-04-12T09:20:28.053Z,53.94
2024-04-12T09:22:55.447Z,53.18
2024-04-12T09:25:22.839Z,52.58
2024-04-12T09:27:50.254Z,53.29
2024-04-12T09:30:17.782Z,52.59
2024-04-12T09:32:45.408Z,52.39
2024-04-12T09:35:12.851Z,53.58
2024-04-12T09:37:40.601Z,52.93
2024-04-12T09:40:08.093Z,51.78
2024-04-12T09:42:35.465Z,51.74
2024-04-12T09:45:02.955Z,50.71
2024-04-12T09:47:30.456Z,51.97
2024-04-12T09:49:57.880Z,51.06
2024-04-12T09:52:25.262Z,50.38
2024-04-12T09:54:52.742Z,51.17
2024-04-12T09:57:20.196Z,50.10
2024-04-12T09:59:47.747Z,49.21
2024-04-12T10:02:16.244Z,48.93
2024-04-12T10:04:43.788Z,48.62
2024-04-12T10:07:11.189Z,49.56
2024-04-12T10:09:38.588Z,48.90
2024-04-12T10:12:06.100Z,48.60
2024-04-12T10:14:33.573Z,48.04
2024-04-12T10:17:00.974Z,47.66
2024-04-12T10:19:28.399Z,48.50
2024-04-12T10:21:55.797Z,47.49
2024-04-12T10:24:23.176Z,47.36
2024-04-12T10:26:50.565Z,47.41
2024-04-12T10:29:17.948Z,47.13
2024-04-12T10:31:45.334Z,47.11
2024-04-12T10:34:12.745Z,47.22
2024-04-12T10:36:40.341Z,46.52
2024-04-12T10:39:07.928Z,46.79
2024-04-12T10:41:35.331Z,47.57
2024-04-12T10:44:02.710Z,46.12
2024-04-12T10:46:30.116Z,45.95
2024-04-12T10:48:57.584Z,45.76
2024-04-12T10:51:25.031Z,45.47
2024-04-12T10:53:52.506Z,46.43
2024-04-12T10:56:19.946Z,46.94
2024-04-12T10:58:47.336Z,45.85
2024-04-12T11:01:14.909Z,45.05
2024-04-12T11:03:42.396Z,45.50
2024-04-12T11:06:09.881Z,46.50
2024-04-12T11:08:37.322Z,45.63
2024-04-12T11:11:04.765Z,44.86
2024-04-12T11:13:32.290Z,44.98
2024-04-12T11:15:59.707Z,44.23
2024-04-12T11:18:27.168Z,44.33
2024-04-12T11:20:54.631Z,44.55
2024-04-12T11:23:22.005Z,44.32
2024-04-12T11:25:49.386Z,43.18
2024-04-12T11:28:16.772Z,44.56
2024-04-12T11:30:44.163Z,43.65
2024-04-12T11:33:12.179Z,43.38
2024-04-12T11:35:39.646Z,42.27
2024-04-12T11:38:07.043Z,42.72
2024-04-12T11:40:34.423Z,43.10
2024-04-12T11:43:04.638Z,40.46
2024-04-12T11:45:33.183Z,40.03
2024-04-12T11:48:00.887Z,40.18
2024-04-12T11:50:28.597Z,39.67
2024-04-12T11:52:56.384Z,40.51
2024-04-12T11:55:26.069Z,39.26
2024-04-12T11:57:54.922Z,38.96
2024-04-12T12:00:22.348Z,39.64
2024-04-12T12:02:49.764Z,40.41
2024-04-12T12:05:17.208Z,39.54
2024-04-12T12:07:44.623Z,39.80
2024-04-12T12:10:12.013Z,38.97
2024-04-12T12:12:39.682Z,39.45
2024-04-12T12:15:07.218Z,38.38
2024-04-12T12:17:34.672Z,39.25
2024-04-12T12:20:02.090Z,38.65
2024-04-12T12:22:29.494Z,37.95
2024-04-12T12:24:56.888Z,38.06
2024-04-12T12:27:24.278Z,38.43
2024-04-12T12:29:51.680Z,38.02
2024-04-12T12:32:19.102Z,38.46
2024-04-12T12:34:46.537Z,38.21
2024-04-12T12:37:13.958Z,37.90
2024-04-12T12:39:41.348Z,38.19
2024-04-12T12:42:08.746Z,37.63
2024-04-12T12:44:36.163Z,38.13
2024-04-12T12:47:03.592Z,38.70
2024-04-12T12:49:31.000Z,37.69
2024-04-12T12:51:58.370Z,37.04
2024-04-12T12:54:25.764Z,38.42
2024-04-12T12:56:53.395Z,36.80
2024-04-12T12:59:24.778Z,37.40
2024-04-12T13:01:53.055Z,35.98
2024-04-12T13:04:20.502Z,36.82
2024-04-12T13:06:47.915Z,36.81
2024-04-12T13:09:15.421Z,36.41
2024-04-12T13:11:42.944Z,35.98
2024-04-12T13:14:10.340Z,35.85
2024-04-12T13:16:37.730Z,36.59
2024-04-12T13:19:05.354Z,36.46
2024-04-12T13:21:32.877Z,36.35
2024-04-12T13:24:00.281Z,36.28
2024-04-12T13:26:27.700Z,36.59
2024-04-12T13:28:55.118Z,35.80
2024-04-12T13:31:22.544Z,35.84
2024-04-12T13:33:49.982Z,35.30
2024-04-12T13:36:17.403Z,35.41
2024-04-12T13:38:44.828Z,35.99
2024-04-12T13:41:12.264Z,36.79
2024-04-12T13:43:39.655Z,36.89
2024-04-12T13:46:07.047Z,36.38
2024-04-12T13:48:34.496Z,36.04
2024-04-12T13:51:01.989Z,35.73
2024-04-12T13:53:29.406Z,35.87
2024-04-12T13:55:56.804Z,35.03
2024-04-12T13:58:24.196Z,35.20
2024-04-12T14:00:51.599Z,36.01
2024-04-12T14:03:21.055Z,35.43
2024-04-12T14:05:48.648Z,36.29
2024-04-12T14:08:16.038Z,36.06
2024-04-12T14:10:43.412Z,35.53
2024-04-12T14:13:10.789Z,35.78
2024-04-12T14:15:38.210Z,35.78
2024-04-12T14:18:05.737Z,35.57
2024-04-12T14:20:33.187Z,35.27
2024-04-12T14:23:00.577Z,34.80
2024-04-12T14:25:28.133Z,34.83
2024-04-12T14:27:55.546Z,34.67
2024-04-12T14:30:23.095Z,35.53
2024-04-12T14:32:50.660Z,35.77
2024-04-12T14:35:18.063Z,36.07
2024-04-12T14:37:45.523Z,36.88
2024-04-12T14:40:13.046Z,36.05
2024-04-12T14:42:40.457Z,36.26
2024-04-12T14:45:08.129Z,36.76
2024-04-12T14:47:35.711Z,36.80
2024-04-12T14:50:03.110Z,36.96
2024-04-12T14:52:30.517Z,38.35
2024-04-12T14:54:57.908Z,37.27
2024-04-12T14:57:25.411Z,36.75
2024-04-12T14:59:52.914Z,37.05
2024-04-12T15:02:20.330Z,36.97
2024-04-12T15:04:47.720Z,37.87
2024-04-12T15:07:15.105Z,36.94
2024-04-12T15:09:42.488Z,36.48
2024-04-12T15:12:09.900Z,36.87
2024-04-12T15:14:39.973Z,36.05
2024-04-12T15:17:07.673Z,36.42
2024-04-12T15:19:35.096Z,36.19
2024-04-12T15:22:02.478Z,37.15
2024-04-12T15:24:29.864Z,35.79
2024-04-12T15:26:57.255Z,36.22
2024-04-12T15:29:24.670Z,36.65
2024-04-12T15:31:52.042Z,34.73
2024-04-12T15:34:19.647Z,33.15
2024-04-12T15:36:47.155Z,31.68
2024-04-12T15:39:14.618Z,33.06
2024-04-12T15:41:42.076Z,30.56
2024-04-12T15:44:09.493Z,31.51
2024-04-12T15:46:36.929Z,30.38
2024-04-12T15:49:04.348Z,28.04
2024-04-12T15:51:31.723Z,29.23
2024-04-12T15:53:59.121Z,30.53
2024-04-12T15:56:26.515Z,31.10
2024-04-12T15:58:53.894Z,31.64
2024-04-12T16:01:21.329Z,34.01
2024-04-12T16:03:48.803Z,32.97
2024-04-12T16:06:16.258Z,32.49
2024-04-12T16:08:43.745Z,32.91
2024-04-12T16:11:11.193Z,32.75
2024-04-12T16:13:38.607Z,32.16
2024-04-12T16:16:05.996Z,32.29
2024-04-12T16:18:33.678Z,32.20
2024-04-12T16:21:01.207Z,33.31
2024-04-12T16:23:28.811Z,33.39
2024-04-12T16:26:03.256Z,34.04
2024-04-12T16:28:32.199Z,33.81
2024-04-12T16:31:01.461Z,33.77
2024-04-12T16:33:30.908Z,33.62
2024-04-12T16:35:58.372Z,33.82
2024-04-12T16:38:25.766Z,34.61
2024-04-12T16:40:53.155Z,33.79
2024-04-12T16:43:20.543Z,33.34
2024-04-12T16:45:47.944Z,34.25
2024-04-12T16:48:15.734Z,34.78
2024-04-12T16:50:43.210Z,34.45
2024-04-12T16:53:10.604Z,34.91
2024-04-12T16:55:38.001Z,35.06
2024-04-12T16:58:05.410Z,34.12
2024-04-12T17:00:33.004Z,33.78
2024-04-12T17:03:00.636Z,33.07
2024-04-12T17:05:28.105Z,32.60
2024-04-12T17:07:55.496Z,30.95
2024-04-12T17:10:22.977Z,31.66
2024-04-12T17:12:50.381Z,31.53
2024-04-12T17:15:17.851Z,32.17
2024-04-12T17:17:45.425Z,32.67
2024-04-12T17:20:12.856Z,33.07
2024-04-12T17:22:40.282Z,32.97
2024-04-12T17:25:07.681Z,32.82
2024-04-12T17:27:35.094Z,33.78
2024-04-12T17:30:02.537Z,34.14
2024-04-12T17:32:29.934Z,33.86
2024-04-12T17:34:57.322Z,34.27
2024-04-12T17:37:24.714Z,33.80
2024-04-12T17:39:52.101Z,34.00
2024-04-12T17:42:19.509Z,34.49
2024-04-12T17:44:46.963Z,36.16
2024-04-12T17:47:14.415Z,35.82
2024-04-12T17:49:41.823Z,36.36
2024-04-12T17:52:09.224Z,36.25
2024-04-12T17:54:36.638Z,36.15
2024-04-12T17:57:04.122Z,36.83
2024-04-12T17:59:31.533Z,37.02
2024-04-12T18:01:58.947Z,37.55
2024-04-12T18:04:26.345Z,37.36
2024-04-12T18:06:53.765Z,37.90
2024-04-12T18:09:21.263Z,37.51
2024-04-12T18:11:48.771Z,38.62
2024-04-12T18:14:16.175Z,38.96
2024-04-12T18:16:43.622Z,38.83
2024-04-12T18:19:11.086Z,39.25
2024-04-12T18:21:38.476Z,40.24
2024-04-12T18:24:05.924Z,39.95
2024-04-12T18:26:33.419Z,40.90
2024-04-12T18:29:00.802Z,39.99
2024-04-12T18:31:28.175Z,40.06
2024-04-12T18:33:55.637Z,40.62
2024-04-12T18:36:23.386Z,41.92
2024-04-12T18:38:50.850Z,41.23
2024-04-12T18:41:18.203Z,41.14
2024-04-12T18:43:45.597Z,40.50
2024-04-12T18:46:12.969Z,40.71
2024-04-12T18:48:40.528Z,40.31
2024-04-12T18:51:08.025Z,39.71
2024-04-12T18:53:35.451Z,39.96
2024-04-12T18:56:02.817Z,39.85
2024-04-12T18:58:30.191Z,39.35
2024-04-12T19:00:57.588Z,38.65
2024-04-12T19:03:25.066Z,39.94
2024-04-12T19:05:52.456Z,39.46
2024-04-12T19:08:19.824Z,39.88
2024-04-12T19:10:47.247Z,40.53
2024-04-12T19:13:16.818Z,40.31
2024-04-12T19:15:44.300Z,40.47
2024-04-12T19:18:11.834Z,39.90
2024-04-12T19:20:39.271Z,39.29
2024-04-12T19:23:06.642Z,39.23
2024-04-12T19:25:34.011Z,40.16
2024-04-12T19:28:01.392Z,40.27
2024-04-12T19:30:28.853Z,40.36
2024-04-12T19:32:56.531Z,40.75
2024-04-12T19:35:23.998Z,40.48
2024-04-12T19:37:51.370Z,41.03
2024-04-12T19:40:18.741Z,41.54
2024-04-12T19:42:46.106Z,41.65
2024-04-12T19:45:13.574Z,41.46
2024-04-12T19:47:41.012Z,41.49
2024-04-12T19:50:08.427Z,42.06
2024-04-12T19:52:37.434Z,42.18
2024-04-12T19:55:06.008Z,42.53
2024-04-12T19:57:33.501Z,42.75
2024-04-12T20:00:00.920Z,42.64
2024-04-12T20:02:28.337Z,42.88
2024-04-12T20:04:55.711Z,43.13
2024-04-12T20:07:23.109Z,43.13
2024-04-12T20:09:50.505Z,43.29
2024-04-12T20:12:17.891Z,43.08
2024-04-12T20:14:49.843Z,43.57
2024-04-12T20:17:19.281Z,43.59
2024-04-12T20:19:46.668Z,43.72
2024-04-12T20:22:14.055Z,43.77
2024-04-12T20:24:41.416Z,44.04
2024-04-12T20:27:08.865Z,43.89
2024-04-12T20:29:36.289Z,43.87
2024-04-12T20:32:03.735Z,43.44
2024-04-12T20:34:31.146Z,43.21
2024-04-12T20:36:58.536Z,43.31
2024-04-12T20:39:25.944Z,43.60
2024-04-12T20:41:53.402Z,43.82
2024-04-12T20:44:21.016Z,43.90
2024-04-12T20:46:48.517Z,44.12
2024-04-12T20:49:15.925Z,44.14
2024-04-12T20:51:43.325Z,44.55
2024-04-12T20:54:10.711Z,45.05
2024-04-12T20:56:38.117Z,44.98
2024-04-12T20:59:05.504Z,45.19
2024-04-12T21:01:32.865Z,45.46
2024-04-12T21:04:00.325Z,45.21
2024-04-12T21:06:27.778Z,45.15
2024-04-12T21:08:55.229Z,45.78
2024-04-12T21:11:26.668Z,45.82
2024-04-12T21:13:54.837Z,45.90
2024-04-12T21:16:22.439Z,45.98
2024-04-12T21:18:49.962Z,46.30
2024-04-12T21:21:17.388Z,47.16
2024-04-12T21:23:44.844Z,47.24
2024-04-12T21:26:12.210Z,47.15
2024-04-12T21:28:42.229Z,46.89
2024-04-12T21:31:10.171Z,47.36
2024-04-12T21:33:37.818Z,47.41
2024-04-12T21:36:05.451Z,47.23
2024-04-12T21:38:32.863Z,48.22
2024-04-12T21:41:00.229Z,49.07
2024-04-12T21:43:27.600Z,49.52
2024-04-12T21:45:54.955Z,49.15
2024-04-12T21:48:22.437Z,49.04
2024-04-12T21:50:49.866Z,48.92
2024-04-12T21:53:17.234Z,48.73
2024-04-12T21:55:44.598Z,48.60
2024-04-12T21:58:11.974Z,48.83
2024-04-12T22:00:39.409Z,48.83
2024-04-12T22:03:06.936Z,48.85
2024-04-12T22:05:34.311Z,49.68
2024-04-12T22:08:01.683Z,49.33
2024-04-12T22:10:29.092Z,49.47
2024-04-12T22:12:56.482Z,48.95
2024-04-12T22:15:23.932Z,48.98
2024-04-12T22:17:51.388Z,49.03
2024-04-12T22:20:18.776Z,48.67
2024-04-12T22:22:46.154Z,49.00
2024-04-12T22:25:13.527Z,48.65
2024-04-12T22:27:40.916Z,48.64
2024-04-12T22:30:08.408Z,48.41
2024-04-12T22:32:35.844Z,48.76
2024-04-12T22:35:03.338Z,49.13
2024-04-12T22:37:30.704Z,49.47
2024-04-12T22:39:58.109Z,49.53
2024-04-12T22:42:25.548Z,49.69
2024-04-12T22:44:52.942Z,49.76
2024-04-12T22:47:20.332Z,49.46
2024-04-12T22:49:47.696Z,49.62
2024-04-12T22:52:15.068Z,50.31
2024-04-12T22:54:42.431Z,50.32
2024-04-12T22:57:09.803Z,50.41
2024-04-12T22:59:37.166Z,50.77
2024-04-12T23:02:04.557Z,50.76
2024-04-12T23:04:32.085Z,50.58
2024-04-12T23:06:59.478Z,50.80
2024-04-12T23:09:26.924Z,50.76
2024-04-12T23:11:54.350Z,50.46
2024-04-12T23:14:21.724Z,50.21
2024-04-12T23:16:49.135Z,50.96
2024-04-12T23:19:16.512Z,50.63
2024-04-12T23:21:43.893Z,51.10
2024-04-12T23:24:11.318Z,51.04
2024-04-12T23:26:38.745Z,51.01
2024-04-12T23:29:06.140Z,50.81
2024-04-12T23:31:33.561Z,50.61
2024-04-12T23:34:00.964Z,50.79
2024-04-12T23:36:28.434Z,51.27
2024-04-12T23:38:55.864Z,51.33
2024-04-12T23:41:23.279Z,51.01
2024-04-12T23:43:50.653Z,51.37
2024-04-12T23:46:18.035Z,51.70
2024-04-12T23:48:45.534Z,52.05
2024-04-12T23:51:13.023Z,52.79
2024-04-12T23:53:40.426Z,52.54
2024-04-12T23:56:07.806Z,52.73
2024-04-12T23:58:35.180Z,53.35
